sensor_id;sensor_type;location;lat;lon;timestamp;temperature;humidity
51825;DHT22;37879;52.986;6.282;2023-04-21T00:02:16;8.90;99.90
51825;DHT22;37879;52.986;6.282;2023-04-21T00:04:42;9.10;99.90
51825;DHT22;37879;52.986;6.282;2023-04-21T00:07:10;8.90;99.90
51825;DHT22;37879;52.986;6.282;2023-04-21T00:09:36;9.00;99.90
51825;DHT22;37879;52.986;6.282;2023-04-21T00:12:01;8.90;99.90
51825;DHT22;37879;52.986;6.282;2023-04-21T00:14:27;9.00;99.90
51825;DHT22;37879;52.986;6.282;2023-04-21T00:16:53;9.10;99.90
51825;DHT22;37879;52.986;6.282;2023-04-21T00:19:19;9.00;99.90
51825;DHT22;37879;52.986;6.282;2023-04-21T00:21:44;9.10;99.90
51825;DHT22;37879;52.986;6.282;2023-04-21T00:24:10;9.10;99.90
51825;DHT22;37879;52.986;6.282;2023-04-21T00:26:36;9.10;99.90
51825;DHT22;37879;52.986;6.282;2023-04-21T00:29:02;9.10;99.90
51825;DHT22;37879;52.986;6.282;2023-04-21T00:31:28;9.10;99.90
51825;DHT22;37879;52.986;6.282;2023-04-21T00:33:54;9.40;99.90
51825;DHT22;37879;52.986;6.282;2023-04-21T00:36:20;9.10;99.90
51825;DHT22;37879;52.986;6.282;2023-04-21T00:38:45;9.10;99.90
51825;DHT22;37879;52.986;6.282;2023-04-21T00:41:11;9.10;99.90
51825;DHT22;37879;52.986;6.282;2023-04-21T00:43:37;9.10;99.90
51825;DHT22;37879;52.986;6.282;2023-04-21T00:46:22;9.10;99.90
51825;DHT22;37879;52.986;6.282;2023-04-21T00:48:48;9.00;99.90
51825;DHT22;37879;52.986;6.282;2023-04-21T00:51:13;9.00;99.90
51825;DHT22;37879;52.986;6.282;2023-04-21T00:53:39;9.00;99.90
51825;DHT22;37879;52.986;6.282;2023-04-21T00:56:05;9.00;99.90
51825;DHT22;37879;52.986;6.282;2023-04-21T00:58:32;8.90;99.90
51825;DHT22;37879;52.986;6.282;2023-04-21T01:00:58;8.90;99.90
51825;DHT22;37879;52.986;6.282;2023-04-21T01:03:23;8.90;99.90
51825;DHT22;37879;52.986;6.282;2023-04-21T01:05:49;10.60;99.90
51825;DHT22;37879;52.986;6.282;2023-04-21T01:08:16;8.80;99.90
51825;DHT22;37879;52.986;6.282;2023-04-21T01:10:41;8.80;99.90
51825;DHT22;37879;52.986;6.282;2023-04-21T01:13:07;8.70;99.90
51825;DHT22;37879;52.986;6.282;2023-04-21T01:15:32;10.20;99.90
51825;DHT22;37879;52.986;6.282;2023-04-21T01:17:58;8.70;99.90
51825;DHT22;37879;52.986;6.282;2023-04-21T01:20:24;8.70;99.90
51825;DHT22;37879;52.986;6.282;2023-04-21T01:22:49;8.70;99.90
51825;DHT22;37879;52.986;6.282;2023-04-21T01:25:16;8.70;99.90
51825;DHT22;37879;52.986;6.282;2023-04-21T01:27:43;8.70;99.90
51825;DHT22;37879;52.986;6.282;2023-04-21T01:30:09;8.70;99.90
51825;DHT22;37879;52.986;6.282;2023-04-21T01:32:34;8.70;99.90
51825;DHT22;37879;52.986;6.282;2023-04-21T01:35:01;8.70;99.90
51825;DHT22;37879;52.986;6.282;2023-04-21T01:37:30;8.70;99.90
51825;DHT22;37879;52.986;6.282;2023-04-21T01:39:57;8.60;99.90
51825;DHT22;37879;52.986;6.282;2023-04-21T01:42:25;9.70;99.90
51825;DHT22;37879;52.986;6.282;2023-04-21T01:44:52;8.60;99.90
51825;DHT22;37879;52.986;6.282;2023-04-21T01:47:19;8.70;99.90
51825;DHT22;37879;52.986;6.282;2023-04-21T01:49:45;8.60;99.90
51825;DHT22;37879;52.986;6.282;2023-04-21T01:52:10;9.60;99.90
51825;DHT22;37879;52.986;6.282;2023-04-21T01:54:36;8.60;99.90
51825;DHT22;37879;52.986;6.282;2023-04-21T01:57:02;8.80;99.90
51825;DHT22;37879;52.986;6.282;2023-04-21T01:59:28;8.60;99.90
51825;DHT22;37879;52.986;6.282;2023-04-21T02:01:54;8.70;99.90
51825;DHT22;37879;52.986;6.282;2023-04-21T02:04:19;9.20;99.90
51825;DHT22;37879;52.986;6.282;2023-04-21T02:06:45;8.80;99.90
51825;DHT22;37879;52.986;6.282;2023-04-21T02:09:11;8.60;99.90
51825;DHT22;37879;52.986;6.282;2023-04-21T02:11:36;9.40;99.90
51825;DHT22;37879;52.986;6.282;2023-04-21T02:14:02;8.50;99.90
51825;DHT22;37879;52.986;6.282;2023-04-21T02:16:28;8.60;99.90
51825;DHT22;37879;52.986;6.282;2023-04-21T02:18:56;8.50;99.90
51825;DHT22;37879;52.986;6.282;2023-04-21T02:21:22;8.50;99.90
51825;DHT22;37879;52.986;6.282;2023-04-21T02:23:49;8.50;99.90
51825;DHT22;37879;52.986;6.282;2023-04-21T02:26:15;8.90;99.90
51825;DHT22;37879;52.986;6.282;2023-04-21T02:28:41;8.50;99.90
51825;DHT22;37879;52.986;6.282;2023-04-21T02:31:06;8.50;99.90
51825;DHT22;37879;52.986;6.282;2023-04-21T02:33:32;8.50;99.90
51825;DHT22;37879;52.986;6.282;2023-04-21T02:35:58;8.40;99.90
51825;DHT22;37879;52.986;6.282;2023-04-21T02:38:23;8.40;99.90
51825;DHT22;37879;52.986;6.282;2023-04-21T02:40:49;8.40;99.90
51825;DHT22;37879;52.986;6.282;2023-04-21T02:43:16;8.40;99.90
51825;DHT22;37879;52.986;6.282;2023-04-21T02:45:41;8.30;99.90
51825;DHT22;37879;52.986;6.282;2023-04-21T02:48:07;8.40;99.90
51825;DHT22;37879;52.986;6.282;2023-04-21T02:50:32;8.50;99.90
51825;DHT22;37879;52.986;6.282;2023-04-21T02:52:58;8.40;99.90
51825;DHT22;37879;52.986;6.282;2023-04-21T02:55:24;8.50;99.90
51825;DHT22;37879;52.986;6.282;2023-04-21T02:57:50;8.80;99.90
51825;DHT22;37879;52.986;6.282;2023-04-21T03:00:15;8.30;99.90
51825;DHT22;37879;52.986;6.282;2023-04-21T03:02:42;8.30;99.90
51825;DHT22;37879;52.986;6.282;2023-04-21T03:05:08;8.20;99.90
51825;DHT22;37879;52.986;6.282;2023-04-21T03:07:34;8.30;99.90
51825;DHT22;37879;52.986;6.282;2023-04-21T03:10:01;8.20;99.90
51825;DHT22;37879;52.986;6.282;2023-04-21T03:12:26;8.20;99.90
51825;DHT22;37879;52.986;6.282;2023-04-21T03:14:52;8.20;99.90
51825;DHT22;37879;52.986;6.282;2023-04-21T03:17:17;8.20;99.90
51825;DHT22;37879;52.986;6.282;2023-04-21T03:19:43;8.20;99.90
51825;DHT22;37879;52.986;6.282;2023-04-21T03:22:09;8.20;99.90
51825;DHT22;37879;52.986;6.282;2023-04-21T03:24:34;8.20;99.90
51825;DHT22;37879;52.986;6.282;2023-04-21T03:27:00;8.20;99.90
51825;DHT22;37879;52.986;6.282;2023-04-21T03:29:27;8.20;99.90
51825;DHT22;37879;52.986;6.282;2023-04-21T03:31:52;8.20;99.90
51825;DHT22;37879;52.986;6.282;2023-04-21T03:34:18;8.20;99.90
51825;DHT22;37879;52.986;6.282;2023-04-21T03:36:43;8.20;99.90
51825;DHT22;37879;52.986;6.282;2023-04-21T03:39:09;8.30;99.90
51825;DHT22;37879;52.986;6.282;2023-04-21T03:41:35;8.10;99.90
51825;DHT22;37879;52.986;6.282;2023-04-21T03:44:01;8.20;99.90
51825;DHT22;37879;52.986;6.282;2023-04-21T03:46:26;8.20;99.90
51825;DHT22;37879;52.986;6.282;2023-04-21T03:48:52;8.20;99.90
51825;DHT22;37879;52.986;6.282;2023-04-21T03:51:18;8.20;99.90
51825;DHT22;37879;52.986;6.282;2023-04-21T03:53:43;8.10;99.90
51825;DHT22;37879;52.986;6.282;2023-04-21T03:56:09;8.10;99.90
51825;DHT22;37879;52.986;6.282;2023-04-21T03:58:35;8.30;99.90
51825;DHT22;37879;52.986;6.282;2023-04-21T04:01:03;8.70;99.90
51825;DHT22;37879;52.986;6.282;2023-04-21T04:03:28;8.10;99.90
51825;DHT22;37879;52.986;6.282;2023-04-21T04:05:54;8.10;99.90
51825;DHT22;37879;52.986;6.282;2023-04-21T04:08:20;8.10;99.90
51825;DHT22;37879;52.986;6.282;2023-04-21T04:10:46;8.20;99.90
51825;DHT22;37879;52.986;6.282;2023-04-21T04:13:11;8.20;99.90
51825;DHT22;37879;52.986;6.282;2023-04-21T04:15:37;8.20;99.90
51825;DHT22;37879;52.986;6.282;2023-04-21T04:18:03;8.20;99.90
51825;DHT22;37879;52.986;6.282;2023-04-21T04:20:28;8.30;99.90
51825;DHT22;37879;52.986;6.282;2023-04-21T04:22:54;8.30;99.90
51825;DHT22;37879;52.986;6.282;2023-04-21T04:25:19;8.30;99.90
51825;DHT22;37879;52.986;6.282;2023-04-21T04:27:45;8.30;99.90
51825;DHT22;37879;52.986;6.282;2023-04-21T04:30:13;9.80;99.90
51825;DHT22;37879;52.986;6.282;2023-04-21T04:32:39;8.20;99.90
51825;DHT22;37879;52.986;6.282;2023-04-21T04:35:06;8.20;99.90
51825;DHT22;37879;52.986;6.282;2023-04-21T04:37:34;8.20;99.90
51825;DHT22;37879;52.986;6.282;2023-04-21T04:39:59;8.10;99.90
51825;DHT22;37879;52.986;6.282;2023-04-21T04:42:25;8.10;99.90
51825;DHT22;37879;52.986;6.282;2023-04-21T04:44:54;8.70;99.90
51825;DHT22;37879;52.986;6.282;2023-04-21T04:47:20;8.10;99.90
51825;DHT22;37879;52.986;6.282;2023-04-21T04:49:46;8.10;99.90
51825;DHT22;37879;52.986;6.282;2023-04-21T04:52:11;8.10;99.90
51825;DHT22;37879;52.986;6.282;2023-04-21T04:54:37;8.10;99.90
51825;DHT22;37879;52.986;6.282;2023-04-21T04:57:03;8.10;99.90
51825;DHT22;37879;52.986;6.282;2023-04-21T04:59:28;8.10;99.90
51825;DHT22;37879;52.986;6.282;2023-04-21T05:01:55;8.10;99.90
51825;DHT22;37879;52.986;6.282;2023-04-21T05:04:21;8.00;99.90
51825;DHT22;37879;52.986;6.282;2023-04-21T05:06:47;8.00;99.90
51825;DHT22;37879;52.986;6.282;2023-04-21T05:09:13;8.00;99.90
51825;DHT22;37879;52.986;6.282;2023-04-21T05:11:38;9.10;99.90
51825;DHT22;37879;52.986;6.282;2023-04-21T05:14:04;8.00;99.90
51825;DHT22;37879;52.986;6.282;2023-04-21T05:16:30;8.10;99.90
51825;DHT22;37879;52.986;6.282;2023-04-21T05:18:59;8.30;99.90
51825;DHT22;37879;52.986;6.282;2023-04-21T05:21:25;8.10;99.90
51825;DHT22;37879;52.986;6.282;2023-04-21T05:23:54;8.10;99.90
51825;DHT22;37879;52.986;6.282;2023-04-21T05:26:21;8.20;99.90
51825;DHT22;37879;52.986;6.282;2023-04-21T05:28:47;8.20;99.90
51825;DHT22;37879;52.986;6.282;2023-04-21T05:31:13;8.20;99.90
51825;DHT22;37879;52.986;6.282;2023-04-21T05:33:38;8.40;99.90
51825;DHT22;37879;52.986;6.282;2023-04-21T05:36:08;8.30;99.90
51825;DHT22;37879;52.986;6.282;2023-04-21T05:38:34;8.30;99.90
51825;DHT22;37879;52.986;6.282;2023-04-21T05:41:00;9.20;99.90
51825;DHT22;37879;52.986;6.282;2023-04-21T05:43:25;9.00;99.90
51825;DHT22;37879;52.986;6.282;2023-04-21T05:45:51;8.40;99.90
51825;DHT22;37879;52.986;6.282;2023-04-21T05:48:17;8.50;99.90
51825;DHT22;37879;52.986;6.282;2023-04-21T05:50:42;8.50;99.90
51825;DHT22;37879;52.986;6.282;2023-04-21T05:53:08;8.50;99.90
51825;DHT22;37879;52.986;6.282;2023-04-21T05:55:34;8.60;99.90
51825;DHT22;37879;52.986;6.282;2023-04-21T05:58:00;8.60;99.90
51825;DHT22;37879;52.986;6.282;2023-04-21T06:00:26;8.70;99.90
51825;DHT22;37879;52.986;6.282;2023-04-21T06:02:52;8.80;99.90
51825;DHT22;37879;52.986;6.282;2023-04-21T06:05:18;8.80;99.90
51825;DHT22;37879;52.986;6.282;2023-04-21T06:07:47;8.90;99.90
51825;DHT22;37879;52.986;6.282;2023-04-21T06:10:16;9.40;99.90
51825;DHT22;37879;52.986;6.282;2023-04-21T06:12:52;9.80;99.90
51825;DHT22;37879;52.986;6.282;2023-04-21T06:15:18;7.90;99.90
51825;DHT22;37879;52.986;6.282;2023-04-21T06:17:44;9.10;99.90
51825;DHT22;37879;52.986;6.282;2023-04-21T06:20:10;9.50;99.90
51825;DHT22;37879;52.986;6.282;2023-04-21T06:22:36;9.30;99.90
51825;DHT22;37879;52.986;6.282;2023-04-21T06:25:01;9.30;99.90
51825;DHT22;37879;52.986;6.282;2023-04-21T06:27:27;9.40;99.90
51825;DHT22;37879;52.986;6.282;2023-04-21T06:29:53;9.40;99.90
51825;DHT22;37879;52.986;6.282;2023-04-21T06:32:19;9.40;99.90
51825;DHT22;37879;52.986;6.282;2023-04-21T06:34:45;9.40;99.90
51825;DHT22;37879;52.986;6.282;2023-04-21T06:37:10;9.50;99.90
51825;DHT22;37879;52.986;6.282;2023-04-21T06:39:36;9.60;99.90
51825;DHT22;37879;52.986;6.282;2023-04-21T06:42:01;9.70;99.90
51825;DHT22;37879;52.986;6.282;2023-04-21T06:44:27;10.20;99.90
51825;DHT22;37879;52.986;6.282;2023-04-21T06:46:53;9.80;99.90
51825;DHT22;37879;52.986;6.282;2023-04-21T06:49:19;9.90;99.90
51825;DHT22;37879;52.986;6.282;2023-04-21T06:51:45;10.00;99.90
51825;DHT22;37879;52.986;6.282;2023-04-21T06:54:10;10.10;99.90
51825;DHT22;37879;52.986;6.282;2023-04-21T06:56:36;10.60;99.90
51825;DHT22;37879;52.986;6.282;2023-04-21T06:59:01;10.40;99.90
51825;DHT22;37879;52.986;6.282;2023-04-21T07:01:27;10.40;99.90
51825;DHT22;37879;52.986;6.282;2023-04-21T07:03:53;10.60;99.90
51825;DHT22;37879;52.986;6.282;2023-04-21T07:06:19;10.60;99.90
51825;DHT22;37879;52.986;6.282;2023-04-21T07:08:44;11.30;99.90
51825;DHT22;37879;52.986;6.282;2023-04-21T07:11:10;10.80;99.90
51825;DHT22;37879;52.986;6.282;2023-04-21T07:13:35;11.60;99.90
51825;DHT22;37879;52.986;6.282;2023-04-21T07:16:01;11.30;99.90
51825;DHT22;37879;52.986;6.282;2023-04-21T07:18:27;11.40;99.90
51825;DHT22;37879;52.986;6.282;2023-04-21T07:20:52;11.00;99.90
51825;DHT22;37879;52.986;6.282;2023-04-21T07:23:18;11.10;99.90
51825;DHT22;37879;52.986;6.282;2023-04-21T07:25:43;11.70;99.90
51825;DHT22;37879;52.986;6.282;2023-04-21T07:28:09;11.10;99.90
51825;DHT22;37879;52.986;6.282;2023-04-21T07:30:39;11.10;99.90
51825;DHT22;37879;52.986;6.282;2023-04-21T07:33:05;11.10;99.90
51825;DHT22;37879;52.986;6.282;2023-04-21T07:35:31;11.20;99.90
51825;DHT22;37879;52.986;6.282;2023-04-21T07:37:56;12.00;99.90
51825;DHT22;37879;52.986;6.282;2023-04-21T07:40:22;11.70;99.90
51825;DHT22;37879;52.986;6.282;2023-04-21T07:42:47;11.30;99.90
51825;DHT22;37879;52.986;6.282;2023-04-21T07:45:13;11.40;99.90
51825;DHT22;37879;52.986;6.282;2023-04-21T07:47:38;11.50;99.90
51825;DHT22;37879;52.986;6.282;2023-04-21T07:50:05;11.50;99.90
51825;DHT22;37879;52.986;6.282;2023-04-21T07:52:31;11.60;99.90
51825;DHT22;37879;52.986;6.282;2023-04-21T07:54:56;11.60;99.90
51825;DHT22;37879;52.986;6.282;2023-04-21T07:57:22;11.70;99.90
51825;DHT22;37879;52.986;6.282;2023-04-21T07:59:48;11.80;99.90
51825;DHT22;37879;52.986;6.282;2023-04-21T08:02:13;11.90;99.90
51825;DHT22;37879;52.986;6.282;2023-04-21T08:04:39;12.00;99.90
51825;DHT22;37879;52.986;6.282;2023-04-21T08:07:05;12.10;99.90
51825;DHT22;37879;52.986;6.282;2023-04-21T08:09:30;12.20;99.90
51825;DHT22;37879;52.986;6.282;2023-04-21T08:11:56;12.30;99.90
51825;DHT22;37879;52.986;6.282;2023-04-21T08:14:22;11.10;99.90
51825;DHT22;37879;52.986;6.282;2023-04-21T08:16:48;12.50;99.90
51825;DHT22;37879;52.986;6.282;2023-04-21T08:19:13;12.70;99.90
51825;DHT22;37879;52.986;6.282;2023-04-21T08:21:39;12.80;99.90
51825;DHT22;37879;52.986;6.282;2023-04-21T08:24:05;12.90;99.90
51825;DHT22;37879;52.986;6.282;2023-04-21T08:26:31;13.00;99.90
51825;DHT22;37879;52.986;6.282;2023-04-21T08:28:59;13.10;99.90
51825;DHT22;37879;52.986;6.282;2023-04-21T08:31:25;13.20;99.90
51825;DHT22;37879;52.986;6.282;2023-04-21T08:33:52;13.20;99.90
51825;DHT22;37879;52.986;6.282;2023-04-21T08:36:17;13.30;99.90
51825;DHT22;37879;52.986;6.282;2023-04-21T08:38:44;13.80;99.90
51825;DHT22;37879;52.986;6.282;2023-04-21T08:41:10;13.40;99.90
51825;DHT22;37879;52.986;6.282;2023-04-21T08:43:35;13.50;99.90
51825;DHT22;37879;52.986;6.282;2023-04-21T08:46:06;13.40;99.90
51825;DHT22;37879;52.986;6.282;2023-04-21T08:48:36;13.40;99.90
51825;DHT22;37879;52.986;6.282;2023-04-21T08:51:04;13.40;99.90
51825;DHT22;37879;52.986;6.282;2023-04-21T08:53:30;13.50;99.90
51825;DHT22;37879;52.986;6.282;2023-04-21T08:55:55;13.50;99.90
51825;DHT22;37879;52.986;6.282;2023-04-21T08:58:22;13.60;99.90
51825;DHT22;37879;52.986;6.282;2023-04-21T09:00:50;13.60;99.90
51825;DHT22;37879;52.986;6.282;2023-04-21T09:03:26;13.70;99.90
51825;DHT22;37879;52.986;6.282;2023-04-21T09:06:03;13.20;99.90
51825;DHT22;37879;52.986;6.282;2023-04-21T09:08:30;14.10;99.90
51825;DHT22;37879;52.986;6.282;2023-04-21T09:10:57;14.70;99.90
51825;DHT22;37879;52.986;6.282;2023-04-21T09:13:36;14.70;99.90
51825;DHT22;37879;52.986;6.282;2023-04-21T09:16:04;14.50;99.90
51825;DHT22;37879;52.986;6.282;2023-04-21T09:18:32;14.60;99.90
51825;DHT22;37879;52.986;6.282;2023-04-21T09:23:47;14.80;99.90
51825;DHT22;37879;52.986;6.282;2023-04-21T09:26:14;14.80;99.90
51825;DHT22;37879;52.986;6.282;2023-04-21T09:28:45;14.90;99.90
51825;DHT22;37879;52.986;6.282;2023-04-21T09:31:18;14.90;99.90
51825;DHT22;37879;52.986;6.282;2023-04-21T09:34:19;15.10;99.90
51825;DHT22;37879;52.986;6.282;2023-04-21T09:36:37;15.10;99.90
51825;DHT22;37879;52.986;6.282;2023-04-21T09:39:03;15.00;99.90
51825;DHT22;37879;52.986;6.282;2023-04-21T09:41:32;15.10;99.90
51825;DHT22;37879;52.986;6.282;2023-04-21T09:43:57;15.10;99.90
51825;DHT22;37879;52.986;6.282;2023-04-21T09:46:31;15.10;99.90
51825;DHT22;37879;52.986;6.282;2023-04-21T09:48:59;15.10;99.90
51825;DHT22;37879;52.986;6.282;2023-04-21T09:51:26;15.10;99.90
51825;DHT22;37879;52.986;6.282;2023-04-21T09:53:54;15.20;99.90
51825;DHT22;37879;52.986;6.282;2023-04-21T09:56:24;15.20;99.90
51825;DHT22;37879;52.986;6.282;2023-04-21T09:58:53;15.20;99.90
51825;DHT22;37879;52.986;6.282;2023-04-21T10:01:19;15.40;99.90
51825;DHT22;37879;52.986;6.282;2023-04-21T10:03:47;15.50;99.90
51825;DHT22;37879;52.986;6.282;2023-04-21T10:06:14;15.60;99.90
51825;DHT22;37879;52.986;6.282;2023-04-21T10:08:40;15.70;99.90
51825;DHT22;37879;52.986;6.282;2023-04-21T10:11:06;15.80;99.90
51825;DHT22;37879;52.986;6.282;2023-04-21T10:13:32;16.10;99.90
51825;DHT22;37879;52.986;6.282;2023-04-21T10:16:02;16.30;99.90
51825;DHT22;37879;52.986;6.282;2023-04-21T10:18:29;16.40;99.90
51825;DHT22;37879;52.986;6.282;2023-04-21T10:23:54;16.60;99.90
51825;DHT22;37879;52.986;6.282;2023-04-21T10:26:23;16.70;99.90
51825;DHT22;37879;52.986;6.282;2023-04-21T10:49:57;16.50;99.90
51825;DHT22;37879;52.986;6.282;2023-04-21T10:52:32;16.50;99.90
51825;DHT22;37879;52.986;6.282;2023-04-21T10:57:24;16.80;99.90
51825;DHT22;37879;52.986;6.282;2023-04-21T10:59:49;16.70;99.90
51825;DHT22;37879;52.986;6.282;2023-04-21T11:02:17;16.70;99.90
51825;DHT22;37879;52.986;6.282;2023-04-21T11:04:43;16.70;99.90
51825;DHT22;37879;52.986;6.282;2023-04-21T11:07:19;16.70;99.90
51825;DHT22;37879;52.986;6.282;2023-04-21T11:09:47;16.90;99.90
51825;DHT22;37879;52.986;6.282;2023-04-21T11:12:15;17.20;99.90
51825;DHT22;37879;52.986;6.282;2023-04-21T11:14:43;17.40;99.90
51825;DHT22;37879;52.986;6.282;2023-04-21T11:17:20;17.70;99.90
51825;DHT22;37879;52.986;6.282;2023-04-21T11:19:56;17.80;99.90
51825;DHT22;37879;52.986;6.282;2023-04-21T11:22:23;17.70;99.90
51825;DHT22;37879;52.986;6.282;2023-04-21T11:24:52;17.60;99.90
51825;DHT22;37879;52.986;6.282;2023-04-21T11:27:19;17.60;99.90
51825;DHT22;37879;52.986;6.282;2023-04-21T11:29:47;17.50;99.90
51825;DHT22;37879;52.986;6.282;2023-04-21T11:32:14;17.50;99.90
51825;DHT22;37879;52.986;6.282;2023-04-21T11:34:40;17.60;99.90
51825;DHT22;37879;52.986;6.282;2023-04-21T11:37:07;17.70;99.90
51825;DHT22;37879;52.986;6.282;2023-04-21T11:39:33;17.70;99.90
51825;DHT22;37879;52.986;6.282;2023-04-21T11:41:59;17.80;99.90
51825;DHT22;37879;52.986;6.282;2023-04-21T11:44:41;17.80;99.90
51825;DHT22;37879;52.986;6.282;2023-04-21T11:47:25;17.80;99.90
51825;DHT22;37879;52.986;6.282;2023-04-21T11:49:56;18.30;99.90
51825;DHT22;37879;52.986;6.282;2023-04-21T11:52:27;18.00;99.90
51825;DHT22;37879;52.986;6.282;2023-04-21T11:54:55;18.00;99.90
51825;DHT22;37879;52.986;6.282;2023-04-21T11:57:23;18.10;99.90
51825;DHT22;37879;52.986;6.282;2023-04-21T11:59:50;18.10;99.90
51825;DHT22;37879;52.986;6.282;2023-04-21T12:02:27;18.20;99.90
51825;DHT22;37879;52.986;6.282;2023-04-21T12:05:20;18.40;99.90
51825;DHT22;37879;52.986;6.282;2023-04-21T12:07:46;18.40;99.90
51825;DHT22;37879;52.986;6.282;2023-04-21T12:10:18;18.70;99.90
51825;DHT22;37879;52.986;6.282;2023-04-21T12:12:44;19.00;99.90
51825;DHT22;37879;52.986;6.282;2023-04-21T12:15:15;19.30;99.90
51825;DHT22;37879;52.986;6.282;2023-04-21T12:17:46;19.80;99.90
51825;DHT22;37879;52.986;6.282;2023-04-21T12:20:14;20.00;99.90
51825;DHT22;37879;52.986;6.282;2023-04-21T12:22:40;20.00;99.90
51825;DHT22;37879;52.986;6.282;2023-04-21T12:25:06;20.20;99.90
51825;DHT22;37879;52.986;6.282;2023-04-21T12:27:33;20.10;99.90
51825;DHT22;37879;52.986;6.282;2023-04-21T12:29:59;19.90;99.90
51825;DHT22;37879;52.986;6.282;2023-04-21T12:32:24;19.70;99.90
51825;DHT22;37879;52.986;6.282;2023-04-21T12:34:50;19.60;99.90
51825;DHT22;37879;52.986;6.282;2023-04-21T12:37:17;19.50;99.90
51825;DHT22;37879;52.986;6.282;2023-04-21T12:39:43;19.40;99.90
51825;DHT22;37879;52.986;6.282;2023-04-21T12:42:09;19.30;99.90
51825;DHT22;37879;52.986;6.282;2023-04-21T12:44:35;19.30;99.90
51825;DHT22;37879;52.986;6.282;2023-04-21T12:47:01;19.10;99.90
51825;DHT22;37879;52.986;6.282;2023-04-21T12:49:26;19.10;99.90
51825;DHT22;37879;52.986;6.282;2023-04-21T12:51:52;18.90;99.90
51825;DHT22;37879;52.986;6.282;2023-04-21T12:54:18;18.80;99.90
51825;DHT22;37879;52.986;6.282;2023-04-21T12:56:43;18.70;99.90
51825;DHT22;37879;52.986;6.282;2023-04-21T12:59:09;18.60;99.90
51825;DHT22;37879;52.986;6.282;2023-04-21T13:01:39;18.50;99.90
51825;DHT22;37879;52.986;6.282;2023-04-21T13:04:06;18.50;99.90
51825;DHT22;37879;52.986;6.282;2023-04-21T13:06:32;18.50;99.90
51825;DHT22;37879;52.986;6.282;2023-04-21T13:08:58;18.50;99.90
51825;DHT22;37879;52.986;6.282;2023-04-21T13:11:24;18.50;99.90
51825;DHT22;37879;52.986;6.282;2023-04-21T13:13:50;18.60;99.90
51825;DHT22;37879;52.986;6.282;2023-04-21T13:16:16;18.50;99.90
51825;DHT22;37879;52.986;6.282;2023-04-21T13:18:41;18.60;99.90
51825;DHT22;37879;52.986;6.282;2023-04-21T13:21:07;18.70;99.90
51825;DHT22;37879;52.986;6.282;2023-04-21T13:23:33;19.00;99.90
51825;DHT22;37879;52.986;6.282;2023-04-21T13:25:58;19.40;99.90
51825;DHT22;37879;52.986;6.282;2023-04-21T13:28:24;19.50;99.90
51825;DHT22;37879;52.986;6.282;2023-04-21T13:30:52;19.50;99.90
51825;DHT22;37879;52.986;6.282;2023-04-21T13:33:18;19.50;99.90
51825;DHT22;37879;52.986;6.282;2023-04-21T13:35:43;19.80;99.90
51825;DHT22;37879;52.986;6.282;2023-04-21T13:38:10;19.70;99.90
51825;DHT22;37879;52.986;6.282;2023-04-21T13:40:36;19.80;99.90
51825;DHT22;37879;52.986;6.282;2023-04-21T13:43:02;20.10;99.90
51825;DHT22;37879;52.986;6.282;2023-04-21T13:45:27;19.90;99.90
51825;DHT22;37879;52.986;6.282;2023-04-21T13:47:53;19.90;99.90
51825;DHT22;37879;52.986;6.282;2023-04-21T13:50:19;19.80;99.90
51825;DHT22;37879;52.986;6.282;2023-04-21T13:52:45;19.90;99.90
51825;DHT22;37879;52.986;6.282;2023-04-21T13:55:11;20.00;99.90
51825;DHT22;37879;52.986;6.282;2023-04-21T13:57:37;20.00;99.90
51825;DHT22;37879;52.986;6.282;2023-04-21T14:00:04;20.00;99.90
51825;DHT22;37879;52.986;6.282;2023-04-21T14:02:37;20.00;99.20
51825;DHT22;37879;52.986;6.282;2023-04-21T14:05:03;20.10;99.40
51825;DHT22;37879;52.986;6.282;2023-04-21T14:07:29;20.20;99.80
51825;DHT22;37879;52.986;6.282;2023-04-21T14:09:55;20.20;99.50
51825;DHT22;37879;52.986;6.282;2023-04-21T14:12:23;20.20;99.40
51825;DHT22;37879;52.986;6.282;2023-04-21T14:14:52;20.10;99.60
51825;DHT22;37879;52.986;6.282;2023-04-21T14:17:17;20.00;99.30
51825;DHT22;37879;52.986;6.282;2023-04-21T14:19:43;19.90;99.80
51825;DHT22;37879;52.986;6.282;2023-04-21T14:22:09;19.80;99.10
51825;DHT22;37879;52.986;6.282;2023-04-21T14:24:34;19.80;99.60
51825;DHT22;37879;52.986;6.282;2023-04-21T14:27:00;19.80;99.70
51825;DHT22;37879;52.986;6.282;2023-04-21T14:29:26;19.80;99.20
51825;DHT22;37879;52.986;6.282;2023-04-21T14:31:52;19.70;98.90
51825;DHT22;37879;52.986;6.282;2023-04-21T14:34:25;19.70;98.40
51825;DHT22;37879;52.986;6.282;2023-04-21T14:36:51;19.70;98.10
51825;DHT22;37879;52.986;6.282;2023-04-21T14:39:17;19.70;97.70
51825;DHT22;37879;52.986;6.282;2023-04-21T14:41:43;19.70;98.10
51825;DHT22;37879;52.986;6.282;2023-04-21T14:44:09;19.70;98.20
51825;DHT22;37879;52.986;6.282;2023-04-21T14:46:35;19.80;98.00
51825;DHT22;37879;52.986;6.282;2023-04-21T14:49:01;19.90;98.00
51825;DHT22;37879;52.986;6.282;2023-04-21T14:51:26;19.90;97.20
51825;DHT22;37879;52.986;6.282;2023-04-21T14:53:52;19.90;97.70
51825;DHT22;37879;52.986;6.282;2023-04-21T14:56:17;19.90;96.10
51825;DHT22;37879;52.986;6.282;2023-04-21T14:58:43;19.80;96.50
51825;DHT22;37879;52.986;6.282;2023-04-21T15:01:09;19.90;96.70
51825;DHT22;37879;52.986;6.282;2023-04-21T15:03:36;20.00;97.00
51825;DHT22;37879;52.986;6.282;2023-04-21T15:06:02;20.00;95.70
51825;DHT22;37879;52.986;6.282;2023-04-21T15:08:29;20.00;95.40
51825;DHT22;37879;52.986;6.282;2023-04-21T15:10:55;19.90;95.20
51825;DHT22;37879;52.986;6.282;2023-04-21T15:13:21;19.90;95.10
51825;DHT22;37879;52.986;6.282;2023-04-21T15:15:47;19.90;94.30
51825;DHT22;37879;52.986;6.282;2023-04-21T15:18:14;19.90;94.50
51825;DHT22;37879;52.986;6.282;2023-04-21T15:20:40;19.90;93.50
51825;DHT22;37879;52.986;6.282;2023-04-21T15:23:07;19.90;93.80
51825;DHT22;37879;52.986;6.282;2023-04-21T15:25:32;20.00;94.20
51825;DHT22;37879;52.986;6.282;2023-04-21T15:27:58;20.00;94.30
51825;DHT22;37879;52.986;6.282;2023-04-21T15:30:24;20.00;93.80
51825;DHT22;37879;52.986;6.282;2023-04-21T15:32:49;19.90;93.70
51825;DHT22;37879;52.986;6.282;2023-04-21T15:35:15;19.80;94.00
51825;DHT22;37879;52.986;6.282;2023-04-21T15:37:41;19.80;93.10
51825;DHT22;37879;52.986;6.282;2023-04-21T15:40:07;19.60;93.00
51825;DHT22;37879;52.986;6.282;2023-04-21T15:42:33;19.60;92.90
51825;DHT22;37879;52.986;6.282;2023-04-21T15:44:59;19.50;93.30
51825;DHT22;37879;52.986;6.282;2023-04-21T15:47:26;19.50;93.50
51825;DHT22;37879;52.986;6.282;2023-04-21T15:49:52;19.40;93.10
51825;DHT22;37879;52.986;6.282;2023-04-21T15:52:18;19.30;93.20
51825;DHT22;37879;52.986;6.282;2023-04-21T15:54:44;19.30;94.00
51825;DHT22;37879;52.986;6.282;2023-04-21T15:57:10;19.20;93.90
51825;DHT22;37879;52.986;6.282;2023-04-21T15:59:36;19.20;94.20
51825;DHT22;37879;52.986;6.282;2023-04-21T16:02:02;19.20;94.20
51825;DHT22;37879;52.986;6.282;2023-04-21T16:04:28;19.20;93.30